createdAt,value
2018-01-21T00:00:55.473Z,47.50
2018-01-21T00:01:55.484Z,47.10
2018-01-21T00:02:55.488Z,46.80
2018-01-21T00:03:55.508Z,52.00
2018-01-21T00:04:55.516Z,54.40
2018-01-21T00:05:55.531Z,51.50
2018-01-21T00:06:55.534Z,50.50
2018-01-21T00:07:55.543Z,54.50
2018-01-21T00:08:55.553Z,52.40
2018-01-21T00:09:55.571Z,53.40
2018-01-21T00:10:55.571Z,60.00
2018-01-21T00:11:55.580Z,55.80
2018-01-21T00:12:55.600Z,50.40
2018-01-21T00:13:55.610Z,57.10
2018-01-21T00:14:55.618Z,59.30
2018-01-21T00:15:55.634Z,57.80
2018-01-21T00:16:55.636Z,58.50
2018-01-21T00:17:55.645Z,55.60
2018-01-21T00:18:55.663Z,56.20
2018-01-21T00:19:55.663Z,62.70
2018-01-21T00:20:55.679Z,62.00
2018-01-21T00:21:55.699Z,66.00
2018-01-21T00:22:55.701Z,64.80
2018-01-21T00:23:55.711Z,65.90
2018-01-21T00:24:55.719Z,64.90
2018-01-21T00:25:55.729Z,60.40
2018-01-21T00:26:55.737Z,59.80
2018-01-21T00:27:55.748Z,62.60
2018-01-21T00:28:55.754Z,60.90
2018-01-21T00:29:55.763Z,64.90
2018-01-21T00:30:55.773Z,72.00
2018-01-21T00:31:55.782Z,69.20
2018-01-21T00:32:55.803Z,63.40
2018-01-21T00:33:55.819Z,65.90
2018-01-21T00:34:55.821Z,70.90
2018-01-21T00:35:55.836Z,69.80
2018-01-21T00:36:55.841Z,74.10
2018-01-21T00:37:55.848Z,75.50
2018-01-21T00:38:55.857Z,65.20
2018-01-21T00:39:55.871Z,74.80
2018-01-21T00:40:55.874Z,64.40
2018-01-21T00:41:55.889Z,66.50
2018-01-21T00:42:55.899Z,72.80
2018-01-21T00:43:55.902Z,78.70
2018-01-21T00:44:55.918Z,73.50
2018-01-21T00:45:55.932Z,80.80
2018-01-21T00:46:55.940Z,80.40
2018-01-21T00:47:55.948Z,73.90
2018-01-21T00:48:55.957Z,69.90
2018-01-21T00:49:55.967Z,76.40
2018-01-21T00:50:55.975Z,81.70
2018-01-21T00:51:55.985Z,79.10
2018-01-21T00:52:55.994Z,69.70
2018-01-21T00:53:56.010Z,80.10
2018-01-21T00:54:56.012Z,73.00
2018-01-21T00:55:56.030Z,80.40
2018-01-21T00:56:56.030Z,78.60
2018-01-21T00:57:56.045Z,86.40
2018-01-21T00:58:56.055Z,87.00
2018-01-21T00:59:56.073Z,78.20
2018-01-21T01:00:56.084Z,80.40
2018-01-21T01:01:56.085Z,88.20
2018-01-21T01:02:56.095Z,74.70
2018-01-21T01:03:56.105Z,74.50
2018-01-21T01:04:56.114Z,78.70
2018-01-21T01:05:56.128Z,70.90
2018-01-21T01:06:56.137Z,74.50
2018-01-21T01:07:56.146Z,72.30
2018-01-21T01:08:56.148Z,69.00
2018-01-21T01:09:56.160Z,72.40
2018-01-21T01:10:56.167Z,76.70
2018-01-21T01:11:56.183Z,77.20
2018-01-21T01:12:56.184Z,77.90
2018-01-21T01:13:56.192Z,72.90
2018-01-21T01:14:56.203Z,71.80
2018-01-21T01:15:56.212Z,83.10
2018-01-21T01:16:56.239Z,87.60
2018-01-21T01:17:56.240Z,76.40
2018-01-21T01:18:56.249Z,73.30
2018-01-21T01:19:56.259Z,74.00
2018-01-21T01:20:56.274Z,76.60
2018-01-21T01:21:56.277Z,72.70
2018-01-21T01:22:56.287Z,79.30
2018-01-21T01:23:56.293Z,75.30
2018-01-21T01:24:56.309Z,76.60
2018-01-21T01:25:56.319Z,82.30
2018-01-21T01:26:56.328Z,81.80
2018-01-21T01:27:56.329Z,74.30
2018-01-21T01:28:56.339Z,100.30
2018-01-21T01:29:56.348Z,82.00
2018-01-21T01:30:56.370Z,103.20
2018-01-21T01:31:56.365Z,91.30
2018-01-21T01:32:56.386Z,100.40
2018-01-21T01:33:56.395Z,106.30
2018-01-21T01:34:56.412Z,115.20
2018-01-21T01:35:56.413Z,107.20
2018-01-21T01:36:56.422Z,106.20
2018-01-21T01:37:56.432Z,115.10
2018-01-21T01:38:56.440Z,110.00
2018-01-21T01:39:56.471Z,111.20
2018-01-21T01:40:56.457Z,121.30
2018-01-21T01:41:56.467Z,98.80
2018-01-21T01:42:56.488Z,99.80
2018-01-21T01:43:56.497Z,113.30
2018-01-21T01:44:56.493Z,101.90
2018-01-21T01:45:56.510Z,100.10
2018-01-21T01:46:56.512Z,110.00
2018-01-21T01:47:56.528Z,108.80
2018-01-21T01:48:56.554Z,98.20
2018-01-21T01:49:56.551Z,107.00
2018-01-21T01:50:56.566Z,91.30
2018-01-21T01:51:56.569Z,97.40
2018-01-21T01:52:56.584Z,93.70
2018-01-21T01:53:56.606Z,83.50
2018-01-21T01:54:56.595Z,90.80
2018-01-21T01:55:56.604Z,77.40
2018-01-21T01:56:56.616Z,78.10
2018-01-21T01:57:56.621Z,79.00
2018-01-21T01:58:56.630Z,83.80
2018-01-21T01:59:56.646Z,84.60
2018-01-21T02:00:56.661Z,78.00
2018-01-21T02:01:56.670Z,83.20
2018-01-21T02:02:56.679Z,77.90
2018-01-21T02:03:56.694Z,81.50
2018-01-21T02:04:56.703Z,80.30
2018-01-21T02:05:56.705Z,77.00
2018-01-21T02:06:56.714Z,73.70
2018-01-21T02:07:56.722Z,80.20
2018-01-21T02:08:56.738Z,69.30
2018-01-21T02:09:56.746Z,74.00
2018-01-21T02:10:56.750Z,74.50
2018-01-21T02:11:56.770Z,69.50
2018-01-21T02:12:56.768Z,65.00
2018-01-21T02:13:56.787Z,70.20
2018-01-21T02:14:56.797Z,66.40
2018-01-21T02:15:56.805Z,67.30
2018-01-21T02:16:56.815Z,68.50
2018-01-21T02:17:56.830Z,61.90
2018-01-21T02:18:56.832Z,68.40
2018-01-21T02:19:56.852Z,68.90
2018-01-21T02:20:56.862Z,63.10
2018-01-21T02:21:56.858Z,69.70
2018-01-21T02:22:56.869Z,67.50
2018-01-21T02:23:56.889Z,61.70
2018-01-21T02:24:56.904Z,67.30
2018-01-21T02:25:56.913Z,61.50
2018-01-21T02:26:56.915Z,63.10
2018-01-21T02:27:56.931Z,58.80
2018-01-21T02:28:56.934Z,63.60
2018-01-21T02:29:56.955Z,54.90
2018-01-21T02:30:56.953Z,55.00
2018-01-21T02:31:56.960Z,62.30
2018-01-21T02:32:56.970Z,58.00
2018-01-21T02:33:56.996Z,58.50
2018-01-21T02:34:56.999Z,57.00
2018-01-21T02:35:57.019Z,61.10
2018-01-21T02:36:57.018Z,59.60
2018-01-21T02:37:57.027Z,64.00
2018-01-21T02:38:57.048Z,64.40
2018-01-21T02:39:57.045Z,58.80
2018-01-21T02:40:57.061Z,59.90
2018-01-21T02:41:57.063Z,58.20
2018-01-21T02:42:57.073Z,55.20
2018-01-21T02:43:57.112Z,54.10
2018-01-21T02:44:57.108Z,58.60
2018-01-21T02:45:57.111Z,58.80
2018-01-21T02:46:57.121Z,55.50
2018-01-21T02:47:57.148Z,60.80
2018-01-21T02:48:57.137Z,55.20
2018-01-21T02:49:57.147Z,59.00
2018-01-21T02:50:57.162Z,60.60
2018-01-21T02:51:57.168Z,56.80
2018-01-21T02:52:57.198Z,58.70
2018-01-21T02:53:57.195Z,56.40
2018-01-21T02:54:57.203Z,55.80
2018-01-21T02:55:57.218Z,60.70
2018-01-21T02:56:57.233Z,55.10
2018-01-21T02:57:57.241Z,63.50
2018-01-21T02:58:57.239Z,61.90
2018-01-21T02:59:57.247Z,59.10
2018-01-21T03:00:57.270Z,60.90
2018-01-21T03:01:57.293Z,52.60
2018-01-21T03:02:57.286Z,59.60
2018-01-21T03:03:57.295Z,57.70
2018-01-21T03:04:57.304Z,54.60
2018-01-21T03:05:57.326Z,54.60
2018-01-21T03:06:57.323Z,56.70
2018-01-21T03:07:57.331Z,57.30
2018-01-21T03:08:57.353Z,53.20
2018-01-21T03:09:57.362Z,55.00
2018-01-21T03:10:57.385Z,54.30
2018-01-21T03:11:57.386Z,58.80
2018-01-21T03:12:57.395Z,59.50
2018-01-21T03:13:57.397Z,59.40
2018-01-21T03:14:57.424Z,54.70
2018-01-21T03:15:57.420Z,57.10
2018-01-21T03:16:57.425Z,57.30
2018-01-21T03:17:57.452Z,49.90
2018-01-21T03:18:57.455Z,49.80
2018-01-21T03:19:57.476Z,49.90
2018-01-21T03:20:57.479Z,52.00
2018-01-21T03:21:57.485Z,49.00
2018-01-21T03:22:57.496Z,51.40
2018-01-21T03:23:57.517Z,50.10
2018-01-21T03:24:57.528Z,47.70
2018-01-21T03:25:57.536Z,49.10
2018-01-21T03:26:57.549Z,47.80
2018-01-21T03:27:57.548Z,47.80
2018-01-21T03:28:57.568Z,50.50
2018-01-21T03:29:57.573Z,49.40
2018-01-21T03:30:57.592Z,51.00
2018-01-21T03:31:57.590Z,54.10
2018-01-21T03:32:57.604Z,53.30
2018-01-21T03:33:57.913Z,57.60
2018-01-21T03:34:57.627Z,54.90
2018-01-21T03:35:57.630Z,51.00
2018-01-21T03:36:57.640Z,52.90
2018-01-21T03:37:57.667Z,51.90
2018-01-21T03:38:57.657Z,55.90
2018-01-21T03:39:57.668Z,51.70
2018-01-21T03:40:57.695Z,49.30
2018-01-21T03:41:57.696Z,49.80
2018-01-21T03:42:57.705Z,54.60
2018-01-21T03:43:57.714Z,50.40
2018-01-21T03:44:57.722Z,48.70
2018-01-21T03:45:57.732Z,45.20
2018-01-21T03:46:57.753Z,50.60
2018-01-21T03:47:57.757Z,51.00
2018-01-21T03:48:57.778Z,50.70
2018-01-21T03:49:57.780Z,53.00
2018-01-21T03:50:57.791Z,52.50
2018-01-21T03:51:57.804Z,48.20
2018-01-21T03:52:57.813Z,51.10
2018-01-21T03:53:57.816Z,50.40
2018-01-21T03:54:57.824Z,47.80
2018-01-21T03:55:57.853Z,48.40
2018-01-21T03:56:57.855Z,53.00
2018-01-21T03:57:57.868Z,51.10
2018-01-21T03:58:57.872Z,50.00
2018-01-21T03:59:57.889Z,54.70
2018-01-21T04:00:57.909Z,49.90
2018-01-21T04:01:57.899Z,49.40
2018-01-21T04:02:57.914Z,50.70
2018-01-21T04:03:57.924Z,52.70
2018-01-21T04:04:57.938Z,53.80
2018-01-21T04:05:57.947Z,53.00
2018-01-21T04:06:57.956Z,55.20
2018-01-21T04:07:57.966Z,56.60
2018-01-21T04:08:57.974Z,55.70
2018-01-21T04:09:57.982Z,51.40
2018-01-21T04:10:58.000Z,53.30
2018-01-21T04:11:58.001Z,54.70
2018-01-21T04:12:58.030Z,58.60
2018-01-21T04:13:58.037Z,54.50
2018-01-21T04:14:58.039Z,55.30
2018-01-21T04:15:58.050Z,52.70
2018-01-21T04:16:58.065Z,52.40
2018-01-21T04:17:58.066Z,52.70
2018-01-21T04:18:58.075Z,56.70
2018-01-21T04:19:58.085Z,54.30
2018-01-21T04:20:58.095Z,56.40
2018-01-21T04:21:58.120Z,56.70
2018-01-21T04:22:58.123Z,53.40
2018-01-21T04:23:58.133Z,55.80
2018-01-21T04:24:58.147Z,58.30
2018-01-21T04:25:58.150Z,55.90
2018-01-21T04:26:58.166Z,54.00
2018-01-21T04:27:58.171Z,64.80
2018-01-21T04:28:58.176Z,61.60
2018-01-21T04:29:58.193Z,61.70
2018-01-21T04:30:58.215Z,63.80
2018-01-21T04:31:58.223Z,68.30
2018-01-21T04:32:58.231Z,65.40
2018-01-21T04:33:58.233Z,67.80
2018-01-21T04:34:58.260Z,65.60
2018-01-21T04:35:58.251Z,71.90
2018-01-21T04:36:58.263Z,67.60
2018-01-21T04:37:58.269Z,71.90
2018-01-21T04:38:58.278Z,72.80
2018-01-21T04:39:58.294Z,73.70
2018-01-21T04:40:58.309Z,75.10
2018-01-21T04:41:58.324Z,79.10
2018-01-21T04:42:58.326Z,73.80
2018-01-21T04:43:58.334Z,74.30
2018-01-21T04:44:58.344Z,72.10
2018-01-21T04:45:58.354Z,74.00
2018-01-21T04:46:58.369Z,78.10
2018-01-21T04:47:58.370Z,82.40
2018-01-21T04:48:58.386Z,78.60
2018-01-21T04:49:58.400Z,77.10
2018-01-21T04:50:58.398Z,70.60
2018-01-21T04:51:58.414Z,76.00
2018-01-21T04:52:58.433Z,72.50
2018-01-21T04:53:58.439Z,75.40
2018-01-21T04:54:58.452Z,70.90
2018-01-21T04:55:58.460Z,64.40
2018-01-21T04:56:58.464Z,68.00
2018-01-21T04:57:58.479Z,69.10
2018-01-21T04:58:58.494Z,70.60
2018-01-21T04:59:58.490Z,73.40
2018-01-21T05:00:58.498Z,76.00
2018-01-21T05:01:58.509Z,67.30
2018-01-21T05:02:58.529Z,77.30
2018-01-21T05:03:58.537Z,76.70
2018-01-21T05:04:58.547Z,74.40
2018-01-21T05:05:58.555Z,65.00
2018-01-21T05:06:58.571Z,68.30
2018-01-21T05:07:58.586Z,73.80
2018-01-21T05:08:58.582Z,67.30
2018-01-21T05:09:58.597Z,68.60
2018-01-21T05:10:58.608Z,67.30
2018-01-21T05:11:58.621Z,64.80
2018-01-21T05:12:58.637Z,72.50
2018-01-21T05:13:58.645Z,71.50
2018-01-21T05:14:58.648Z,74.40
2018-01-21T05:15:58.656Z,71.70
2018-01-21T05:16:58.685Z,72.90
2018-01-21T05:17:58.682Z,68.80
2018-01-21T05:18:58.689Z,72.50
2018-01-21T05:19:58.693Z,70.10
2018-01-21T05:20:58.703Z,67.80
2018-01-21T05:21:58.722Z,68.10
2018-01-21T05:22:58.739Z,68.50
2018-01-21T05:23:58.740Z,66.40
2018-01-21T05:24:58.755Z,65.70
2018-01-21T05:25:58.771Z,64.10
2018-01-21T05:26:58.774Z,60.60
2018-01-21T05:27:58.776Z,62.90
2018-01-21T05:28:58.793Z,64.10
2018-01-21T05:29:58.807Z,59.60
2018-01-21T05:30:58.822Z,56.70
2018-01-21T05:31:58.824Z,60.80
2018-01-21T05:32:58.839Z,67.50
2018-01-21T05:33:58.842Z,60.10
2018-01-21T05:34:58.859Z,66.30
2018-01-21T05:35:58.860Z,59.40
2018-01-21T05:36:58.875Z,61.70
2018-01-21T05:37:58.890Z,67.50
2018-01-21T05:38:58.899Z,67.20
2018-01-21T05:39:58.909Z,60.00
2018-01-21T05:40:58.923Z,67.00
2018-01-21T05:41:58.925Z,66.60
2018-01-21T05:42:58.941Z,68.20
2018-01-21T05:43:58.952Z,72.80
2018-01-21T05:44:58.959Z,69.80
2018-01-21T05:45:58.981Z,66.50
2018-01-21T05:46:58.990Z,64.30
2018-01-21T05:47:58.992Z,67.40
2018-01-21T05:48:59.006Z,64.00
2018-01-21T05:49:59.013Z,69.90
2018-01-21T05:50:59.025Z,66.80
2018-01-21T05:51:59.028Z,68.10
2018-01-21T05:52:59.044Z,64.40
2018-01-21T05:53:59.057Z,62.30
2018-01-21T05:54:59.066Z,67.70
2018-01-21T05:55:59.075Z,66.80
2018-01-21T05:56:59.090Z,71.50
2018-01-21T05:57:59.092Z,67.10
2018-01-21T05:58:59.101Z,65.20
2018-01-21T05:59:59.117Z,70.90
2018-01-21T06:00:59.120Z,72.00
2018-01-21T06:01:59.140Z,71.60
2018-01-21T06:02:59.155Z,71.80
2018-01-21T06:03:59.159Z,68.00
2018-01-21T06:04:59.169Z,68.30
2018-01-21T06:05:59.184Z,67.80
2018-01-21T06:06:59.191Z,70.50
2018-01-21T06:07:59.202Z,64.20
2018-01-21T06:08:59.205Z,65.00
2018-01-21T06:09:59.224Z,63.80
2018-01-21T06:10:59.233Z,63.00
2018-01-21T06:11:59.242Z,63.60
2018-01-21T06:12:59.256Z,70.20
2018-01-21T06:13:59.260Z,63.40
2018-01-21T06:14:59.270Z,72.00
2018-01-21T06:15:59.285Z,67.60
2018-01-21T06:16:59.288Z,71.40
2018-01-21T06:17:59.310Z,72.70
2018-01-21T06:18:59.318Z,77.30
2018-01-21T06:19:59.334Z,73.50
2018-01-21T06:20:59.342Z,69.30
2018-01-21T06:21:59.344Z,64.30
2018-01-21T06:22:59.359Z,66.90
2018-01-21T06:23:59.362Z,71.30
2018-01-21T06:24:59.372Z,63.40
2018-01-21T06:25:59.393Z,67.50
2018-01-21T06:26:59.408Z,69.00
2018-01-21T06:27:59.416Z,68.80
2018-01-21T06:28:59.425Z,66.00
2018-01-21T06:29:59.434Z,68.40
2018-01-21T06:30:59.443Z,62.70
2018-01-21T06:31:59.451Z,67.60
2018-01-21T06:32:59.468Z,66.60
2018-01-21T06:33:59.476Z,66.40
2018-01-21T06:34:59.491Z,64.60
2018-01-21T06:35:59.495Z,67.10
2018-01-21T06:36:59.508Z,69.90
2018-01-21T06:37:59.511Z,61.30
2018-01-21T06:38:59.520Z,63.90
2018-01-21T06:39:59.536Z,60.80
2018-01-21T06:40:59.562Z,63.50
2018-01-21T06:41:59.565Z,69.90
2018-01-21T06:42:59.568Z,68.70
2018-01-21T06:43:59.577Z,71.50
2018-01-21T06:44:59.587Z,74.50
2018-01-21T06:45:59.602Z,72.40
2018-01-21T06:46:59.606Z,74.20
2018-01-21T06:47:59.632Z,74.00
2018-01-21T06:48:59.641Z,68.20
2018-01-21T06:49:59.643Z,74.70
2018-01-21T06:50:59.651Z,72.60
2018-01-21T06:51:59.670Z,73.40
2018-01-21T06:52:59.681Z,75.30
2018-01-21T06:53:59.685Z,69.30
2018-01-21T06:54:59.712Z,74.30
2018-01-21T06:55:59.708Z,74.00
2018-01-21T06:56:59.723Z,67.10
2018-01-21T06:57:59.734Z,67.90
2018-01-21T06:58:59.736Z,69.70
2018-01-21T06:59:59.750Z,70.90
2018-01-21T07:00:59.755Z,70.90
2018-01-21T07:01:59.775Z,77.50
2018-01-21T07:02:59.783Z,72.30
2018-01-21T07:03:59.799Z,79.10
2018-01-21T07:04:59.801Z,68.80
2018-01-21T07:05:59.819Z,68.90
2018-01-21T07:06:59.818Z,71.10
2018-01-21T07:07:59.828Z,61.50
2018-01-21T07:08:59.846Z,61.40
2018-01-21T07:09:59.858Z,71.90
2018-01-21T07:10:59.867Z,64.80
2018-01-21T07:11:59.876Z,69.60
2018-01-21T07:12:59.886Z,70.60
2018-01-21T07:13:59.900Z,70.90
2018-01-21T07:14:59.921Z,64.10
2018-01-21T07:15:59.918Z,69.40
2018-01-21T07:16:59.932Z,67.40
2018-01-21T07:17:59.950Z,63.40
2018-01-21T07:18:59.953Z,66.70
2018-01-21T07:19:59.962Z,65.20
2018-01-21T07:20:59.976Z,60.80
2018-01-21T07:21:59.977Z,62.80
2018-01-21T07:22:59.987Z,61.70
2018-01-21T07:24:00.016Z,64.10
2018-01-21T07:25:00.027Z,66.20
2018-01-21T07:26:00.028Z,61.90
2018-01-21T07:27:00.042Z,64.50
2018-01-21T07:28:00.043Z,67.70
2018-01-21T07:29:00.072Z,71.40
2018-01-21T07:30:00.075Z,63.30
2018-01-21T07:31:00.082Z,66.80
2018-01-21T07:32:00.099Z,63.20
2018-01-21T07:33:00.101Z,67.10
2018-01-21T07:34:00.116Z,68.20
2018-01-21T07:35:00.118Z,68.80
2018-01-21T07:36:00.128Z,67.50
2018-01-21T07:37:00.143Z,70.10
2018-01-21T07:38:00.164Z,68.70
2018-01-21T07:39:00.166Z,71.80
2018-01-21T07:40:00.181Z,69.40
2018-01-21T07:41:00.184Z,63.10
2018-01-21T07:42:00.193Z,72.40
2018-01-21T07:43:00.209Z,70.40
2018-01-21T07:44:00.211Z,66.90
2018-01-21T07:45:00.220Z,69.00
2018-01-21T07:46:00.248Z,70.00
2018-01-21T07:47:00.250Z,62.00
2018-01-21T07:48:00.259Z,68.90
2018-01-21T07:49:00.273Z,64.80
2018-01-21T07:50:00.278Z,64.90
2018-01-21T07:51:00.290Z,61.50
2018-01-21T07:52:00.301Z,64.90
2018-01-21T07:53:00.324Z,62.30
2018-01-21T07:54:00.325Z,61.30
2018-01-21T07:55:00.340Z,63.10
2018-01-21T07:56:00.349Z,60.40
2018-01-21T07:57:00.358Z,64.30
2018-01-21T07:58:00.366Z,68.70
2018-01-21T07:59:00.388Z,67.70
2018-01-21T08:00:00.392Z,71.50
2018-01-21T08:01:00.410Z,67.70
2018-01-21T08:02:00.409Z,71.90
2018-01-21T08:03:00.427Z,66.70
2018-01-21T08:04:00.428Z,66.80
2018-01-21T08:05:00.443Z,62.80
2018-01-21T08:06:00.463Z,71.90
2018-01-21T08:07:00.467Z,62.90
2018-01-21T08:08:00.482Z,62.30
2018-01-21T08:09:00.490Z,63.60
2018-01-21T08:10:00.493Z,55.80
2018-01-21T08:11:00.502Z,59.80
2018-01-21T08:12:00.518Z,54.10
2018-01-21T08:13:00.531Z,52.10
2018-01-21T08:14:00.547Z,50.50
2018-01-21T08:15:00.550Z,48.50
2018-01-21T08:16:00.558Z,46.50
2018-01-21T08:17:00.577Z,50.80
2018-01-21T08:18:00.588Z,48.60
2018-01-21T08:19:00.598Z,51.30
2018-01-21T08:20:00.606Z,50.30
2018-01-21T08:21:00.621Z,53.80
2018-01-21T08:22:00.682Z,49.60
2018-01-21T08:23:00.639Z,49.10
2018-01-21T08:24:00.654Z,52.60
2018-01-21T08:25:00.664Z,51.70
2018-01-21T08:26:00.672Z,50.40
2018-01-21T08:27:00.681Z,51.80
2018-01-21T08:28:00.694Z,50.20
2018-01-21T08:29:00.702Z,48.20
2018-01-21T08:30:00.720Z,44.50
2018-01-21T08:31:00.730Z,49.40
2018-01-21T08:32:00.746Z,46.20
2018-01-21T08:33:00.747Z,54.00
2018-01-21T08:34:00.755Z,51.90
2018-01-21T08:35:00.765Z,51.60
2018-01-21T08:36:00.793Z,50.10
2018-01-21T08:37:00.808Z,53.00
2018-01-21T08:38:00.804Z,50.10
2018-01-21T08:39:00.813Z,57.00
2018-01-21T08:40:00.821Z,50.40
2018-01-21T08:41:00.850Z,50.70
2018-01-21T08:42:00.851Z,56.30
2018-01-21T08:43:00.868Z,52.40
2018-01-21T08:44:00.877Z,51.30
2018-01-21T08:45:00.879Z,48.40
2018-01-21T08:46:00.901Z,54.60
2018-01-21T08:47:00.910Z,52.30
2018-01-21T08:48:00.918Z,52.30
2018-01-21T08:49:00.934Z,49.70
2018-01-21T08:50:00.936Z,53.60
2018-01-21T08:51:00.946Z,57.00
2018-01-21T08:52:00.972Z,55.50
2018-01-21T08:53:00.976Z,52.30
2018-01-21T08:54:00.991Z,57.80
2018-01-21T08:55:00.992Z,58.20
2018-01-21T08:56:01.002Z,53.60
2018-01-21T08:57:01.022Z,56.90
2018-01-21T08:58:01.033Z,59.30
2018-01-21T08:59:01.042Z,58.80
2018-01-21T09:00:01.050Z,54.30
2018-01-21T09:01:01.065Z,58.30
2018-01-21T09:02:01.086Z,62.70
2018-01-21T09:03:01.090Z,64.10
2018-01-21T09:04:01.101Z,62.10
2018-01-21T09:05:01.107Z,58.20
2018-01-21T09:06:01.115Z,64.80
2018-01-21T09:07:01.143Z,64.30
2018-01-21T09:08:01.147Z,59.70
2018-01-21T09:09:01.161Z,61.00
2018-01-21T09:10:01.163Z,60.40
2018-01-21T09:11:01.173Z,58.40
2018-01-21T09:12:01.194Z,59.20
2018-01-21T09:13:01.220Z,56.00
2018-01-21T09:14:01.221Z,58.70
2018-01-21T09:15:01.221Z,62.20
2018-01-21T09:16:01.237Z,61.40
2018-01-21T09:17:01.250Z,61.10
2018-01-21T09:18:01.267Z,61.40
2018-01-21T09:19:01.275Z,60.90
2018-01-21T09:20:01.279Z,56.10
2018-01-21T09:21:01.299Z,60.00
2018-01-21T09:22:01.310Z,60.70
2018-01-21T09:23:01.323Z,65.70
2018-01-21T09:24:01.328Z,68.30
2018-01-21T09:25:01.354Z,62.00
2018-01-21T09:26:01.358Z,65.20
2018-01-21T09:27:01.365Z,58.50
2018-01-21T09:28:01.381Z,61.10
2018-01-21T09:29:01.383Z,60.60
2018-01-21T09:30:01.411Z,64.00
2018-01-21T09:31:01.421Z,64.40
2018-01-21T09:32:01.421Z,62.30
2018-01-21T09:33:01.431Z,63.30
2018-01-21T09:34:01.459Z,63.20
2018-01-21T09:35:01.462Z,55.90
2018-01-21T09:36:01.470Z,56.50
2018-01-21T09:37:01.480Z,56.70
2018-01-21T09:38:01.507Z,53.80
2018-01-21T09:39:01.509Z,62.30
2018-01-21T09:40:01.525Z,54.30
2018-01-21T09:41:01.534Z,54.50
2018-01-21T09:42:01.555Z,56.70
2018-01-21T09:43:01.564Z,57.30
2018-01-21T09:44:01.567Z,66.50
2018-01-21T09:45:01.588Z,59.00
2018-01-21T09:46:01.597Z,67.60
2018-01-21T09:47:01.606Z,65.90
2018-01-21T09:48:01.620Z,64.00
2018-01-21T09:49:01.631Z,63.80
2018-01-21T09:50:01.646Z,59.90
2018-01-21T09:51:01.653Z,61.50
2018-01-21T09:52:01.669Z,60.10
2018-01-21T09:53:01.671Z,65.70
2018-01-21T09:54:01.692Z,60.30
2018-01-21T09:55:01.701Z,56.80
2018-01-21T09:56:01.710Z,57.60
2018-01-21T09:57:01.727Z,56.50
2018-01-21T09:58:01.748Z,53.70
2018-01-21T09:59:01.757Z,54.30
2018-01-21T10:00:01.759Z,56.70
2018-01-21T10:01:01.769Z,59.70
2018-01-21T10:02:01.796Z,56.40
2018-01-21T10:03:01.798Z,55.30
2018-01-21T10:04:01.807Z,58.90
2018-01-21T10:05:01.824Z,62.20
2018-01-21T10:06:01.844Z,55.50
2018-01-21T10:07:01.882Z,57.20
2018-01-21T10:08:01.866Z,60.50
2018-01-21T10:09:01.901Z,55.20
2018-01-21T10:10:01.885Z,56.70
2018-01-21T10:11:01.901Z,55.30
2018-01-21T10:12:01.909Z,56.00
2018-01-21T10:13:01.912Z,57.00
2018-01-21T10:14:01.940Z,57.10
2018-01-21T10:15:01.950Z,59.70
2018-01-21T10:16:01.960Z,61.00
2018-01-21T10:17:01.967Z,65.10
2018-01-21T10:18:01.982Z,70.50
2018-01-21T10:19:01.990Z,65.30
2018-01-21T10:20:01.999Z,62.40
2018-01-21T10:21:02.019Z,62.50
2018-01-21T10:22:02.036Z,63.30
2018-01-21T10:23:02.039Z,57.50
2018-01-21T10:24:02.048Z,60.40
2018-01-21T10:25:02.057Z,56.10
2018-01-21T10:26:02.083Z,57.00
2018-01-21T10:27:02.086Z,53.30
2018-01-21T10:28:02.094Z,58.80
2018-01-21T10:29:02.104Z,52.90
2018-01-21T10:30:02.125Z,49.30
2018-01-21T10:31:02.141Z,43.80
2018-01-21T10:32:02.150Z,45.70
2018-01-21T10:33:02.152Z,48.70
2018-01-21T10:34:02.173Z,48.00
2018-01-21T10:35:02.183Z,50.70
2018-01-21T10:36:02.192Z,49.60
2018-01-21T10:37:02.207Z,49.80
2018-01-21T10:38:02.212Z,47.00
2018-01-21T10:39:02.248Z,59.60
2018-01-21T10:40:02.239Z,55.60
2018-01-21T10:41:02.248Z,51.90
2018-01-21T10:42:02.264Z,56.40
2018-01-21T10:43:02.284Z,59.00
2018-01-21T10:44:02.299Z,51.30
2018-01-21T10:45:02.296Z,53.70
2018-01-21T10:46:02.313Z,52.20
2018-01-21T10:47:02.334Z,53.70
2018-01-21T10:48:02.336Z,50.50
2018-01-21T10:49:02.344Z,52.60
2018-01-21T10:50:02.359Z,55.90
2018-01-21T10:51:02.382Z,58.00
2018-01-21T10:52:02.383Z,57.30
2018-01-21T10:53:02.399Z,57.40
2018-01-21T10:54:02.401Z,55.40
2018-01-21T10:55:02.422Z,54.40
2018-01-21T10:56:02.432Z,59.50
2018-01-21T10:57:02.441Z,54.10
2018-01-21T10:58:02.456Z,52.30
2018-01-21T10:59:02.459Z,56.80
2018-01-21T11:00:02.479Z,57.90
2018-01-21T11:01:02.489Z,56.40
2018-01-21T11:02:02.498Z,53.60
2018-01-21T11:03:02.506Z,54.20
2018-01-21T11:04:02.528Z,53.80
2018-01-21T11:05:02.536Z,55.60
2018-01-21T11:06:02.552Z,56.30
2018-01-21T11:07:02.556Z,51.80
2018-01-21T11:08:02.565Z,51.10
2018-01-21T11:09:02.585Z,51.90
2018-01-21T11:10:02.594Z,52.40
2018-01-21T11:11:02.613Z,53.30
2018-01-21T11:12:02.625Z,48.80
2018-01-21T11:13:02.688Z,51.70
2018-01-21T11:14:02.642Z,52.00
2018-01-21T11:15:02.650Z,51.20
2018-01-21T11:16:02.671Z,49.30
2018-01-21T11:17:02.681Z,45.50
2018-01-21T11:18:02.697Z,46.20
2018-01-21T11:19:02.705Z,47.80
2018-01-21T11:20:02.720Z,48.10
2018-01-21T11:21:02.728Z,48.80
2018-01-21T11:22:02.738Z,49.30
2018-01-21T11:23:02.747Z,54.10
2018-01-21T11:24:02.768Z,49.60
2018-01-21T11:25:02.783Z,51.20
2018-01-21T11:26:02.791Z,49.00
2018-01-21T11:27:02.806Z,52.80
2018-01-21T11:28:02.817Z,53.10
2018-01-21T11:29:02.831Z,46.80
2018-01-21T11:30:02.834Z,44.10
2018-01-21T11:31:02.856Z,50.60
2018-01-21T11:32:02.870Z,47.80
2018-01-21T11:33:02.880Z,51.30
2018-01-21T11:34:02.901Z,45.00
2018-01-21T11:35:02.907Z,48.90
2018-01-21T11:36:02.914Z,46.80
2018-01-21T11:37:02.922Z,46.20
2018-01-21T11:38:02.962Z,47.20
2018-01-21T11:39:02.952Z,48.40
2018-01-21T11:40:02.967Z,53.10
2018-01-21T11:41:02.982Z,56.30
2018-01-21T11:42:02.997Z,57.20
2018-01-21T11:43:03.007Z,62.50
2018-01-21T11:44:03.028Z,62.80
2018-01-21T11:45:03.031Z,60.50
2018-01-21T11:46:03.049Z,59.60
2018-01-21T11:47:03.060Z,54.00
2018-01-21T11:48:03.076Z,52.40
2018-01-21T11:49:03.079Z,55.50
2018-01-21T11:50:03.099Z,57.70
2018-01-21T11:51:03.113Z,64.70
2018-01-21T11:52:03.118Z,67.20
2018-01-21T11:53:03.126Z,64.00
2018-01-21T11:54:03.153Z,63.20
2018-01-21T11:55:03.155Z,66.90
2018-01-21T11:56:03.174Z,63.00
2018-01-21T11:57:03.187Z,61.30
2018-01-21T11:58:03.234Z,59.80
2018-01-21T11:59:03.211Z,62.50
2018-01-21T12:00:03.234Z,64.80
2018-01-21T12:01:03.241Z,57.10
2018-01-21T12:02:03.244Z,64.20
2018-01-21T12:03:03.266Z,54.90
2018-01-21T12:04:03.281Z,60.20
2018-01-21T12:05:03.283Z,56.00
2018-01-21T12:06:03.300Z,56.50
2018-01-21T12:07:03.312Z,60.20
2018-01-21T12:08:03.321Z,63.00
2018-01-21T12:09:03.331Z,66.50
2018-01-21T12:10:03.365Z,64.10
2018-01-21T12:11:03.361Z,58.30
2018-01-21T12:12:03.369Z,58.50
2018-01-21T12:13:03.391Z,59.40
2018-01-21T12:14:03.400Z,60.00
2018-01-21T12:15:03.408Z,58.30
2018-01-21T12:16:03.419Z,58.10
2018-01-21T12:17:03.445Z,59.10
2018-01-21T12:18:03.450Z,55.80
2018-01-21T12:19:03.457Z,57.50
2018-01-21T12:20:03.485Z,63.40
2018-01-21T12:21:03.487Z,59.80
2018-01-21T12:22:03.504Z,64.60
2018-01-21T12:23:03.517Z,55.50
2018-01-21T12:24:03.532Z,58.80
2018-01-21T12:25:03.536Z,56.60
2018-01-21T12:26:03.550Z,55.40
2018-01-21T12:27:03.565Z,57.60
2018-01-21T12:28:03.574Z,52.90
2018-01-21T12:29:03.583Z,54.20
2018-01-21T12:30:03.606Z,55.40
2018-01-21T12:31:03.614Z,52.30
2018-01-21T12:32:03.622Z,58.80
2018-01-21T12:33:03.643Z,52.60
2018-01-21T12:34:03.653Z,55.30
2018-01-21T12:35:03.671Z,58.50
2018-01-21T12:36:03.671Z,53.00
2018-01-21T12:37:03.699Z,46.20
2018-01-21T12:38:03.702Z,40.30
2018-01-21T12:39:03.721Z,46.00
2018-01-21T12:40:03.731Z,49.50
2018-01-21T12:41:03.739Z,54.60
2018-01-21T12:42:03.749Z,47.00
2018-01-21T12:43:03.781Z,45.60
2018-01-21T12:44:03.778Z,50.80
2018-01-21T12:45:03.794Z,47.70
2018-01-21T12:46:03.798Z,51.00
2018-01-21T12:47:03.818Z,53.20
2018-01-21T12:48:03.828Z,53.40
2018-01-21T12:49:03.836Z,45.20
2018-01-21T12:50:03.858Z,49.10
2018-01-21T12:51:03.866Z,50.30
2018-01-21T12:52:03.875Z,51.30
2018-01-21T12:53:03.897Z,47.70